createdAt,value
2018-11-14T00:00:13.347Z,49.10
2018-11-14T00:02:41.630Z,49.30
2018-11-14T00:05:09.924Z,49.10
2018-11-14T00:07:38.240Z,49.40
2018-11-14T00:10:07.889Z,49.10
2018-11-14T00:12:36.171Z,49.10
2018-11-14T00:15:04.471Z,49.40
2018-11-14T00:17:32.719Z,49.30
2018-11-14T00:20:00.991Z,49.30
2018-11-14T00:22:29.223Z,49.40
2018-11-14T00:24:57.519Z,49.40
2018-11-14T00:27:25.799Z,50.10
2018-11-14T00:29:54.218Z,49.70
2018-11-14T00:32:22.650Z,49.60
2018-11-14T00:34:51.048Z,49.70
2018-11-14T00:37:19.284Z,49.50
2018-11-14T00:39:47.554Z,49.60
2018-11-14T00:42:15.804Z,49.70
2018-11-14T00:44:44.052Z,49.70
2018-11-14T00:47:12.320Z,49.90
2018-11-14T00:49:40.723Z,50.00
2018-11-14T00:52:09.023Z,49.80
2018-11-14T00:54:37.295Z,49.90
2018-11-14T00:57:05.556Z,50.00
2018-11-14T00:59:33.804Z,49.80
2018-11-14T01:02:02.865Z,49.80
2018-11-14T01:04:30.870Z,49.90
2018-11-14T01:06:59.133Z,49.80
2018-11-14T01:09:27.384Z,49.70
2018-11-14T01:11:55.727Z,49.90
2018-11-14T01:14:24.037Z,49.80
2018-11-14T01:16:52.395Z,49.80
2018-11-14T01:19:20.655Z,50.00
2018-11-14T01:21:48.980Z,49.90
2018-11-14T01:24:17.227Z,49.90
2018-11-14T01:26:45.511Z,49.80
2018-11-14T01:29:13.756Z,49.70
2018-11-14T01:31:42.020Z,49.80
2018-11-14T01:34:10.333Z,49.70
2018-11-14T01:36:38.621Z,50.30
2018-11-14T01:39:09.639Z,49.80
2018-11-14T01:41:38.169Z,49.90
2018-11-14T01:44:06.812Z,50.00
2018-11-14T01:46:35.532Z,49.90
2018-11-14T01:49:03.792Z,50.10
2018-11-14T01:51:32.067Z,50.20
2018-11-14T01:54:00.313Z,50.10
2018-11-14T01:56:28.791Z,50.10
2018-11-14T01:58:57.054Z,50.10
2018-11-14T02:01:25.347Z,50.20
2018-11-14T02:03:53.746Z,50.40
2018-11-14T02:06:22.428Z,50.50
2018-11-14T02:08:50.717Z,50.40
2018-11-14T02:11:18.983Z,50.30
2018-11-14T02:13:47.347Z,50.40
2018-11-14T02:16:15.640Z,50.20
2018-11-14T02:18:43.901Z,50.20
2018-11-14T02:21:12.191Z,50.20
2018-11-14T02:23:40.435Z,50.10
2018-11-14T02:26:08.690Z,50.20
2018-11-14T02:28:36.945Z,50.10
2018-11-14T02:31:05.634Z,50.40
2018-11-14T02:33:33.927Z,50.20
2018-11-14T02:36:02.212Z,50.20
2018-11-14T02:38:30.649Z,50.40
2018-11-14T02:40:58.844Z,50.60
2018-11-14T02:43:27.148Z,50.00
2018-11-14T02:45:55.459Z,50.00
2018-11-14T02:48:23.751Z,50.20
2018-11-14T02:51:03.459Z,50.20
2018-11-14T02:53:31.725Z,50.50
2018-11-14T02:56:05.748Z,50.50
2018-11-14T02:58:34.040Z,50.40
2018-11-14T03:01:02.276Z,50.50
2018-11-14T03:03:30.523Z,50.60
2018-11-14T03:05:58.811Z,51.30
2018-11-14T03:08:27.077Z,50.60
2018-11-14T03:10:55.342Z,50.60
2018-11-14T03:13:23.626Z,50.70
2018-11-14T03:15:52.086Z,50.50
2018-11-14T03:18:20.383Z,50.50
2018-11-14T03:20:48.671Z,50.60
2018-11-14T03:23:16.988Z,50.60
2018-11-14T03:25:45.316Z,50.70
2018-11-14T03:28:13.628Z,50.60
2018-11-14T03:30:41.916Z,50.60
2018-11-14T03:33:10.227Z,50.60
2018-11-14T03:35:43.929Z,50.70
2018-11-14T03:38:12.260Z,50.60
2018-11-14T03:40:40.550Z,50.30
2018-11-14T03:43:08.882Z,50.40
2018-11-14T03:45:37.189Z,50.50
2018-11-14T03:48:05.559Z,50.60
2018-11-14T03:50:33.871Z,50.90
2018-11-14T03:53:02.289Z,50.80
2018-11-14T03:55:30.705Z,50.90
2018-11-14T03:57:59.043Z,50.70
2018-11-14T04:00:27.397Z,50.70
2018-11-14T04:02:55.704Z,50.60
2018-11-14T04:05:24.120Z,50.60
2018-11-14T04:07:52.467Z,50.70
2018-11-14T04:10:20.809Z,50.60
2018-11-14T04:12:49.120Z,50.70
2018-11-14T04:15:17.471Z,51.00
2018-11-14T04:17:45.799Z,51.10
2018-11-14T04:20:16.464Z,51.00
2018-11-14T04:22:45.243Z,51.10
2018-11-14T04:25:15.314Z,51.20
2018-11-14T04:27:44.479Z,51.20
2018-11-14T04:30:14.538Z,51.10
2018-11-14T04:32:43.421Z,51.00
2018-11-14T04:35:12.760Z,51.00
2018-11-14T04:37:41.018Z,51.00
2018-11-14T04:40:11.371Z,51.10
2018-11-14T04:42:39.864Z,51.00
2018-11-14T04:45:10.440Z,51.00
2018-11-14T04:47:38.738Z,50.70
2018-11-14T04:50:09.255Z,50.90
2018-11-14T04:52:37.824Z,51.10
2018-11-14T04:55:07.729Z,51.00
2018-11-14T04:57:35.994Z,50.90
2018-11-14T05:00:04.654Z,50.70
2018-11-14T05:02:32.934Z,50.70
2018-11-14T05:05:01.205Z,50.70
2018-11-14T05:07:29.470Z,51.20
2018-11-14T05:09:57.759Z,51.20
2018-11-14T05:12:26.039Z,51.00
2018-11-14T05:14:54.310Z,52.20
2018-11-14T05:17:22.581Z,51.80
2018-11-14T05:19:50.986Z,51.80
2018-11-14T05:22:19.296Z,52.00
2018-11-14T05:24:47.777Z,52.00
2018-11-14T05:27:16.812Z,52.20
2018-11-14T05:29:45.054Z,52.40
2018-11-14T05:32:13.338Z,52.50
2018-11-14T05:34:41.824Z,52.50
2018-11-14T05:37:10.178Z,52.20
2018-11-14T05:39:38.453Z,52.10
2018-11-14T05:42:06.740Z,52.00
2018-11-14T05:44:34.982Z,52.50
2018-11-14T05:47:03.402Z,52.80
2018-11-14T05:49:31.652Z,53.10
2018-11-14T05:51:59.988Z,53.10
2018-11-14T05:54:28.302Z,53.30
2018-11-14T05:56:56.594Z,53.40
2018-11-14T05:59:24.876Z,53.40
2018-11-14T06:01:53.172Z,53.20
2018-11-14T06:04:21.478Z,53.30
2018-11-14T06:06:49.754Z,52.60
2018-11-14T06:09:18.037Z,51.80
2018-11-14T06:11:46.326Z,51.20
2018-11-14T06:14:14.600Z,50.50
2018-11-14T06:16:42.925Z,50.20
2018-11-14T06:19:11.223Z,49.70
2018-11-14T06:21:39.510Z,49.40
2018-11-14T06:24:07.805Z,49.00
2018-11-14T06:26:36.290Z,49.00
2018-11-14T06:29:04.700Z,48.80
2018-11-14T06:31:33.007Z,48.70
2018-11-14T06:34:01.279Z,48.70
2018-11-14T06:36:29.583Z,48.50
2018-11-14T06:38:57.880Z,48.30
2018-11-14T06:41:26.223Z,48.30
2018-11-14T06:43:54.653Z,48.10
2018-11-14T06:46:22.969Z,48.00
2018-11-14T06:48:51.298Z,48.20
2018-11-14T06:51:19.583Z,48.20
2018-11-14T06:53:47.856Z,48.00
2018-11-14T06:56:16.159Z,47.90
2018-11-14T06:58:44.493Z,47.90
2018-11-14T07:01:12.717Z,48.10
2018-11-14T07:03:41.042Z,48.10
2018-11-14T07:06:09.435Z,47.80
2018-11-14T07:08:37.694Z,48.00
2018-11-14T07:11:06.251Z,47.90
2018-11-14T07:13:34.458Z,47.50
2018-11-14T07:16:02.753Z,47.50
2018-11-14T07:18:31.017Z,47.30
2018-11-14T07:20:59.431Z,47.00
2018-11-14T07:23:27.701Z,47.00
2018-11-14T07:25:55.997Z,46.90
2018-11-14T07:28:24.322Z,47.00
2018-11-14T07:30:52.616Z,47.20
2018-11-14T07:33:20.902Z,46.40
2018-11-14T07:35:49.184Z,46.10
2018-11-14T07:38:39.215Z,45.90
2018-11-14T07:41:09.415Z,46.10
2018-11-14T07:43:38.320Z,46.70
2018-11-14T07:46:06.920Z,46.80
2018-11-14T07:48:35.522Z,47.40
2018-11-14T07:51:04.019Z,47.50
2018-11-14T07:53:32.845Z,47.40
2018-11-14T07:56:01.130Z,47.00
2018-11-14T07:58:29.474Z,47.20
2018-11-14T08:00:57.900Z,47.50
2018-11-14T08:03:26.318Z,47.40
2018-11-14T08:05:54.982Z,47.40
2018-11-14T08:08:23.323Z,47.00
2018-11-14T08:10:51.789Z,47.20
2018-11-14T08:13:21.450Z,47.50
2018-11-14T08:15:51.134Z,47.10
2018-11-14T08:18:19.426Z,47.20
2018-11-14T08:20:47.716Z,47.30
2018-11-14T08:23:16.025Z,47.20
2018-11-14T08:25:44.266Z,47.20
2018-11-14T08:28:13.192Z,46.70
2018-11-14T08:30:41.525Z,47.00
2018-11-14T08:33:09.738Z,47.00
2018-11-14T08:35:37.997Z,47.10
2018-11-14T08:38:06.288Z,46.80
2018-11-14T08:40:34.542Z,46.70
2018-11-14T08:43:02.844Z,46.80
2018-11-14T08:45:31.098Z,46.20
2018-11-14T08:47:59.415Z,46.90
2018-11-14T08:50:27.765Z,47.00
2018-11-14T08:52:55.983Z,46.80
2018-11-14T08:55:24.282Z,46.80
2018-11-14T08:57:52.733Z,47.10
2018-11-14T09:00:23.049Z,47.10
2018-11-14T09:02:51.722Z,46.90
2018-11-14T09:05:19.995Z,46.70
2018-11-14T09:07:48.808Z,46.90
2018-11-14T09:10:18.403Z,46.80
2018-11-14T09:12:47.130Z,47.10
2018-11-14T09:15:16.735Z,47.20
2018-11-14T09:17:45.022Z,47.10
2018-11-14T09:20:15.657Z,47.60
2018-11-14T09:22:44.156Z,47.40
2018-11-14T09:25:28.757Z,47.30
2018-11-14T09:27:57.537Z,47.50
2018-11-14T09:30:26.453Z,47.80
2018-11-14T09:32:54.996Z,47.70
2018-11-14T09:35:24.093Z,47.10
2018-11-14T09:37:53.280Z,47.10
2018-11-14T09:40:22.866Z,47.20
2018-11-14T09:42:51.201Z,47.00
2018-11-14T09:45:20.782Z,47.10
2018-11-14T09:47:49.174Z,47.60
2018-11-14T09:50:20.883Z,47.90
2018-11-14T09:52:51.799Z,47.40
2018-11-14T09:55:20.116Z,47.30
2018-11-14T09:57:48.398Z,46.40
2018-11-14T10:00:20.890Z,46.60
2018-11-14T10:02:50.607Z,46.70
2018-11-14T10:05:20.262Z,47.30
2018-11-14T10:07:48.678Z,46.60
2018-11-14T10:10:18.351Z,46.20
2018-11-14T10:12:46.622Z,47.00
2018-11-14T10:15:22.834Z,46.40
2018-11-14T10:17:51.103Z,46.40
2018-11-14T10:20:23.522Z,45.90
2018-11-14T10:22:51.872Z,46.40
2018-11-14T10:25:20.279Z,46.70
2018-11-14T10:27:49.210Z,45.90
2018-11-14T10:30:19.854Z,45.70
2018-11-14T10:32:48.709Z,45.40
2018-11-14T10:35:16.973Z,45.10
2018-11-14T10:37:45.392Z,44.80
2018-11-14T10:40:16.458Z,45.40
2018-11-14T10:42:44.985Z,45.00
2018-11-14T10:45:14.682Z,45.30
2018-11-14T10:47:43.050Z,45.20
2018-11-14T10:50:14.157Z,45.40
2018-11-14T10:52:42.387Z,45.10
2018-11-14T10:55:11.626Z,45.30
2018-11-14T10:57:39.899Z,45.30
2018-11-14T11:00:16.233Z,45.40
2018-11-14T11:02:49.907Z,44.80
2018-11-14T11:05:23.527Z,44.30
2018-11-14T11:07:57.121Z,44.60
2018-11-14T11:10:30.914Z,45.10
2018-11-14T11:13:04.382Z,44.20
2018-11-14T11:16:38.715Z,43.50
2018-11-14T11:19:07.016Z,43.40
2018-11-14T11:21:35.322Z,42.80
2018-11-14T11:24:03.631Z,42.70
2018-11-14T11:26:32.040Z,42.50
2018-11-14T11:29:00.321Z,42.40
2018-11-14T11:31:28.628Z,41.80
2018-11-14T11:33:57.063Z,41.60
2018-11-14T11:36:25.371Z,41.50
2018-11-14T11:38:53.650Z,41.40
2018-11-14T11:41:21.931Z,41.00
2018-11-14T11:43:50.188Z,40.60
2018-11-14T11:46:18.465Z,41.40
2018-11-14T11:48:46.735Z,41.40
2018-11-14T11:51:15.100Z,40.10
2018-11-14T11:53:43.683Z,40.50
2018-11-14T11:56:11.988Z,39.60
2018-11-14T11:58:40.491Z,39.80
2018-11-14T12:01:08.804Z,39.50
2018-11-14T12:03:37.239Z,40.90
2018-11-14T12:06:06.027Z,39.00
2018-11-14T12:08:34.343Z,38.60
2018-11-14T12:11:02.677Z,39.50
2018-11-14T12:13:31.011Z,39.20
2018-11-14T12:15:59.427Z,39.10
2018-11-14T12:18:27.696Z,39.40
2018-11-14T12:20:55.991Z,39.40
2018-11-14T12:23:24.256Z,40.10
2018-11-14T12:25:52.515Z,39.10
2018-11-14T12:28:20.761Z,39.10
2018-11-14T12:30:49.179Z,38.80
2018-11-14T12:33:17.250Z,38.70
2018-11-14T12:35:45.677Z,39.00
2018-11-14T12:38:13.922Z,38.80
2018-11-14T12:40:42.160Z,38.70
2018-11-14T12:43:10.504Z,38.40
2018-11-14T12:45:38.805Z,38.00
2018-11-14T12:48:07.163Z,38.00
2018-11-14T12:50:35.417Z,38.40
2018-11-14T12:53:03.673Z,38.00
2018-11-14T12:55:31.933Z,37.40
2018-11-14T12:58:00.197Z,37.80
2018-11-14T13:00:28.454Z,37.70
2018-11-14T13:02:56.716Z,37.30
2018-11-14T13:05:25.066Z,37.20
2018-11-14T13:07:53.386Z,37.00
2018-11-14T13:10:21.633Z,37.90
2018-11-14T13:12:50.408Z,36.90
2018-11-14T13:15:19.717Z,37.60
2018-11-14T13:17:47.986Z,39.00
2018-11-14T13:20:20.535Z,39.00
2018-11-14T13:22:48.784Z,38.50
2018-11-14T13:25:17.146Z,37.70
2018-11-14T13:27:46.414Z,38.10
2018-11-14T13:30:17.280Z,39.30
2018-11-14T13:32:46.464Z,38.10
2018-11-14T13:35:15.921Z,38.30
2018-11-14T13:37:45.088Z,38.20
2018-11-14T13:40:13.407Z,38.80
2018-11-14T13:42:42.081Z,38.70
2018-11-14T13:45:11.797Z,38.80
2018-11-14T13:47:40.506Z,39.00
2018-11-14T13:50:10.748Z,39.30
2018-11-14T13:52:39.243Z,39.50
2018-11-14T13:55:09.061Z,40.10
2018-11-14T13:57:37.376Z,40.20
2018-11-14T14:00:07.618Z,40.50
2018-11-14T14:02:35.920Z,40.70
2018-11-14T14:05:04.435Z,40.80
2018-11-14T14:07:32.695Z,40.70
2018-11-14T14:10:00.962Z,40.90
2018-11-14T14:12:29.224Z,40.70
2018-11-14T14:14:57.463Z,40.60
2018-11-14T14:17:25.736Z,40.90
2018-11-14T14:19:53.994Z,40.50
2018-11-14T14:22:22.391Z,40.80
2018-11-14T14:24:50.561Z,41.00
2018-11-14T14:27:18.851Z,41.40
2018-11-14T14:29:47.132Z,41.60
2018-11-14T14:32:16.260Z,41.50
2018-11-14T14:34:45.109Z,41.80
2018-11-14T14:37:13.560Z,41.90
2018-11-14T14:39:41.822Z,42.00
2018-11-14T14:42:10.251Z,41.90
2018-11-14T14:44:38.560Z,41.70
2018-11-14T14:47:06.870Z,41.80
2018-11-14T14:49:35.240Z,41.80
2018-11-14T14:52:03.488Z,41.70
2018-11-14T14:54:31.760Z,41.80
2018-11-14T14:57:00.076Z,41.80
2018-11-14T14:59:28.340Z,41.70
2018-11-14T15:01:56.596Z,41.80
2018-11-14T15:04:24.866Z,41.70
2018-11-14T15:06:53.103Z,41.40
2018-11-14T15:09:21.434Z,41.60
2018-11-14T15:11:49.941Z,41.50
2018-11-14T15:14:18.198Z,41.70
2018-11-14T15:16:46.478Z,41.50
2018-11-14T15:19:14.751Z,41.70
2018-11-14T15:21:43.013Z,41.80
2018-11-14T15:24:11.527Z,41.90
2018-11-14T15:26:39.850Z,42.00
2018-11-14T15:29:08.257Z,41.90
2018-11-14T15:31:36.624Z,41.60
2018-11-14T15:34:05.964Z,42.10
2018-11-14T15:36:34.260Z,42.90
2018-11-14T15:39:02.819Z,42.10
2018-11-14T15:41:31.075Z,42.00
2018-11-14T15:43:59.360Z,42.10
2018-11-14T15:46:27.611Z,42.40
2018-11-14T15:48:55.904Z,42.20
2018-11-14T15:51:24.189Z,42.60
2018-11-14T15:53:52.459Z,42.50
2018-11-14T15:56:20.726Z,42.20
2018-11-14T15:58:49.013Z,42.10
2018-11-14T16:01:17.267Z,42.60
2018-11-14T16:03:45.565Z,42.60
2018-11-14T16:06:13.839Z,42.40
2018-11-14T16:08:42.132Z,42.30
2018-11-14T16:11:10.402Z,42.50
2018-11-14T16:13:38.679Z,42.40
2018-11-14T16:16:07.133Z,42.20
2018-11-14T16:18:35.447Z,42.70
2018-11-14T16:21:03.716Z,42.80
2018-11-14T16:23:31.964Z,43.40
2018-11-14T16:26:00.219Z,43.10
2018-11-14T16:28:28.491Z,42.90
2018-11-14T16:30:56.911Z,43.50
2018-11-14T16:33:25.167Z,43.60
2018-11-14T16:35:53.424Z,43.20
2018-11-14T16:38:21.773Z,43.70
2018-11-14T16:40:49.980Z,43.30
2018-11-14T16:43:18.226Z,43.90
2018-11-14T16:45:46.524Z,43.90
2018-11-14T16:48:14.756Z,43.30
2018-11-14T16:50:43.059Z,43.60
2018-11-14T16:53:11.304Z,43.90
2018-11-14T16:55:39.667Z,43.50
2018-11-14T16:58:07.886Z,43.30
2018-11-14T17:00:36.282Z,44.30
2018-11-14T17:03:04.573Z,44.00
2018-11-14T17:05:33.236Z,43.80
2018-11-14T17:08:01.559Z,44.10
2018-11-14T17:10:29.905Z,44.20
2018-11-14T17:12:59.234Z,44.20
2018-11-14T17:15:27.843Z,44.70
2018-11-14T17:17:56.148Z,44.60
2018-11-14T17:20:24.523Z,45.50
2018-11-14T17:22:53.847Z,44.80
2018-11-14T17:25:22.244Z,45.10
2018-11-14T17:27:50.700Z,45.20
2018-11-14T17:30:23.400Z,44.80
2018-11-14T17:32:52.197Z,44.80
2018-11-14T17:35:20.624Z,44.90
2018-11-14T17:37:48.906Z,45.00
2018-11-14T17:40:19.972Z,45.10
2018-11-14T17:42:49.327Z,44.90
2018-11-14T17:45:22.787Z,45.10
2018-11-14T17:47:51.378Z,46.00
2018-11-14T17:50:24.038Z,44.90
2018-11-14T17:52:53.187Z,45.30
2018-11-14T17:55:22.271Z,45.80
2018-11-14T17:57:50.478Z,45.10
2018-11-14T18:00:20.323Z,45.20
2018-11-14T18:02:48.782Z,45.30
2018-11-14T18:05:18.823Z,45.40
2018-11-14T18:07:47.961Z,45.30
2018-11-14T18:10:17.575Z,45.10
2018-11-14T18:12:47.010Z,45.40
2018-11-14T18:15:15.328Z,45.40
2018-11-14T18:17:43.876Z,45.30
2018-11-14T18:20:15.546Z,45.20
2018-11-14T18:22:44.567Z,45.30
2018-11-14T18:25:13.331Z,45.90
2018-11-14T18:27:41.627Z,45.60
2018-11-14T18:30:11.958Z,45.20
2018-11-14T18:32:40.260Z,45.00
2018-11-14T18:35:11.058Z,45.00
2018-11-14T18:37:39.380Z,45.70
2018-11-14T18:40:10.102Z,45.60
2018-11-14T18:42:38.816Z,45.30
2018-11-14T18:45:10.867Z,45.10
2018-11-14T18:47:39.155Z,44.90
2018-11-14T18:50:08.788Z,45.40
2018-11-14T18:52:37.184Z,45.10
2018-11-14T18:55:06.803Z,45.10
2018-11-14T18:57:35.138Z,45.30
2018-11-14T19:00:03.436Z,45.70
2018-11-14T19:02:31.721Z,45.00
2018-11-14T19:05:00.103Z,45.40
2018-11-14T19:07:28.363Z,45.40
2018-11-14T19:09:56.600Z,46.40
2018-11-14T19:12:25.018Z,45.70
2018-11-14T19:14:53.294Z,45.80
2018-11-14T19:17:21.605Z,45.90
2018-11-14T19:19:50.024Z,45.50
2018-11-14T19:22:18.306Z,45.50
2018-11-14T19:24:46.656Z,45.50
2018-11-14T19:27:14.974Z,45.40
2018-11-14T19:29:43.244Z,45.70
2018-11-14T19:32:11.662Z,45.30
2018-11-14T19:34:40.160Z,45.40
2018-11-14T19:37:08.461Z,45.50
2018-11-14T19:39:36.776Z,45.00
2018-11-14T19:42:05.654Z,44.70
2018-11-14T19:44:33.996Z,45.00
2018-11-14T19:47:02.295Z,45.20
2018-11-14T19:49:30.582Z,45.40
2018-11-14T19:51:58.947Z,45.50
2018-11-14T19:54:27.470Z,45.20
2018-11-14T19:56:55.790Z,45.10
2018-11-14T19:59:24.080Z,44.90
2018-11-14T20:01:52.447Z,45.40
2018-11-14T20:04:20.715Z,44.90
2018-11-14T20:06:49.006Z,45.30
2018-11-14T20:09:17.335Z,45.00
2018-11-14T20:11:45.772Z,45.10
2018-11-14T20:14:14.221Z,45.00
2018-11-14T20:16:42.551Z,45.30
2018-11-14T20:19:10.866Z,45.00
2018-11-14T20:21:39.160Z,45.30
2018-11-14T20:24:07.504Z,45.80
2018-11-14T20:26:35.878Z,46.00
2018-11-14T20:29:04.369Z,46.20
2018-11-14T20:31:32.743Z,46.50
2018-11-14T20:34:01.028Z,46.60
2018-11-14T20:36:29.340Z,47.20
2018-11-14T20:38:57.685Z,46.80
2018-11-14T20:41:26.013Z,46.50
2018-11-14T20:43:54.399Z,46.30
2018-11-14T20:46:22.680Z,46.40
2018-11-14T20:48:51.007Z,46.40
2018-11-14T20:51:19.375Z,46.60
2018-11-14T20:53:47.746Z,46.60
2018-11-14T20:56:16.088Z,46.90
2018-11-14T20:58:44.385Z,46.60
2018-11-14T21:01:12.666Z,46.90
2018-11-14T21:03:41.016Z,47.10
2018-11-14T21:06:09.409Z,47.20
2018-11-14T21:08:37.915Z,46.60
2018-11-14T21:11:06.290Z,47.10
2018-11-14T21:13:34.579Z,47.00
2018-11-14T21:16:02.870Z,47.50
2018-11-14T21:18:31.183Z,47.10
2018-11-14T21:20:59.446Z,47.10
2018-11-14T21:23:27.743Z,47.50
2018-11-14T21:25:56.068Z,47.70
2018-11-14T21:28:24.422Z,47.50
2018-11-14T21:30:52.702Z,46.90
2018-11-14T21:33:21.012Z,47.10
2018-11-14T21:35:49.279Z,47.10
2018-11-14T21:38:17.574Z,47.40
2018-11-14T21:40:45.855Z,47.40
2018-11-14T21:43:15.214Z,47.50
2018-11-14T21:45:43.498Z,47.60
2018-11-14T21:48:14.923Z,47.90
2018-11-14T21:50:43.446Z,48.00
2018-11-14T21:53:11.793Z,47.90
2018-11-14T21:55:40.033Z,47.90
2018-11-14T21:58:08.394Z,48.70
2018-11-14T22:00:38.091Z,48.40
2018-11-14T22:03:07.543Z,48.20
2018-11-14T22:05:36.112Z,48.50
2018-11-14T22:08:04.346Z,48.60
2018-11-14T22:10:32.628Z,48.30
2018-11-14T22:13:00.932Z,48.70
2018-11-14T22:15:30.076Z,48.30
2018-11-14T22:17:58.404Z,48.40
2018-11-14T22:20:27.494Z,48.30
2018-11-14T22:22:55.792Z,48.30
2018-11-14T22:25:25.063Z,48.50
2018-11-14T22:27:53.380Z,48.40
2018-11-14T22:30:24.027Z,48.50
2018-11-14T22:32:52.306Z,48.60
2018-11-14T22:35:22.011Z,48.70
2018-11-14T22:37:50.258Z,48.80
2018-11-14T22:40:20.028Z,49.40
2018-11-14T22:42:48.382Z,48.90
2018-11-14T22:45:18.990Z,48.70
2018-11-14T22:47:47.546Z,48.40
2018-11-14T22:50:18.027Z,48.50
2018-11-14T22:52:46.697Z,48.60
2018-11-14T22:55:16.132Z,48.20
2018-11-14T22:57:45.270Z,47.90
2018-11-14T23:00:22.835Z,48.20
2018-11-14T23:02:52.267Z,48.20
2018-11-14T23:05:20.562Z,48.10
2018-11-14T23:07:50.180Z,48.20
2018-11-14T23:10:19.408Z,48.10
2018-11-14T23:12:48.109Z,47.90
2018-11-14T23:15:16.651Z,47.90
2018-11-14T23:17:45.167Z,47.90
2018-11-14T23:20:14.962Z,47.60
2018-11-14T23:22:44.870Z,48.00
2018-11-14T23:25:13.809Z,47.50
2018-11-14T23:27:43.804Z,47.40
2018-11-14T23:30:13.261Z,47.50
2018-11-14T23:32:42.911Z,47.50
2018-11-14T23:35:18.382Z,47.30
2018-11-14T23:37:48.323Z,47.40
2018-11-14T23:40:16.638Z,47.60
2018-11-14T23:42:44.952Z,47.40
2018-11-14T23:45:14.420Z,47.30
2018-11-14T23:47:43.660Z,47.20
2018-11-14T23:50:13.950Z,47.40
2018-11-14T23:52:43.469Z,47.60
2018-11-14T23:55:11.930Z,47.70
2018-11-14T23:57:40.542Z,48.20
